createdAt,value
2022-11-28T00:01:06.908Z,9.40
2022-11-28T00:03:33.681Z,10.13
2022-11-28T00:06:05.656Z,8.57
2022-11-28T00:08:33.456Z,10.27
2022-11-28T00:11:07.845Z,9.27
2022-11-28T00:13:36.176Z,10.00
2022-11-28T00:16:07.431Z,10.30
2022-11-28T00:18:34.446Z,9.87
2022-11-28T00:21:10.112Z,9.73
2022-11-28T00:23:37.376Z,9.30
2022-11-28T00:26:14.077Z,12.07
2022-11-28T00:28:40.735Z,9.77
2022-11-28T00:31:12.809Z,8.33
2022-11-28T00:33:39.577Z,8.63
2022-11-28T00:36:06.698Z,10.13
2022-11-28T00:38:33.211Z,10.97
2022-11-28T00:41:03.253Z,8.00
2022-11-28T00:43:30.104Z,9.97
2022-11-28T00:45:56.895Z,8.47
2022-11-28T00:48:24.097Z,8.23
2022-11-28T00:50:50.776Z,6.93
2022-11-28T00:53:17.467Z,6.87
2022-11-28T00:55:43.955Z,8.43
2022-11-28T00:58:10.445Z,7.73
2022-11-28T01:00:37.841Z,9.60
2022-11-28T01:03:04.632Z,8.17
2022-11-28T01:05:31.134Z,8.60
2022-11-28T01:07:57.697Z,8.00
2022-11-28T01:10:24.186Z,7.50
2022-11-28T01:12:50.695Z,9.13
2022-11-28T01:15:17.447Z,8.67
2022-11-28T01:17:44.704Z,8.70
2022-11-28T01:20:12.050Z,7.93
2022-11-28T01:22:38.600Z,8.00
2022-11-28T01:25:05.552Z,8.17
2022-11-28T01:27:32.136Z,9.60
2022-11-28T01:29:58.579Z,8.63
2022-11-28T01:32:25.054Z,8.83
2022-11-28T01:34:51.652Z,8.40
2022-11-28T01:37:18.360Z,7.63
2022-11-28T01:39:44.819Z,9.37
2022-11-28T01:42:20.874Z,8.63
2022-11-28T01:44:50.282Z,7.50
2022-11-28T01:47:21.974Z,8.13
2022-11-28T01:49:50.379Z,9.33
2022-11-28T01:52:19.443Z,9.83
2022-11-28T01:54:50.871Z,8.67
2022-11-28T01:57:22.311Z,9.20
2022-11-28T02:00:09.809Z,8.60
2022-11-28T02:02:46.553Z,7.93
2022-11-28T02:05:13.836Z,10.77
2022-11-28T02:07:41.201Z,9.77
2022-11-28T02:10:10.745Z,9.60
2022-11-28T02:13:13.894Z,7.53
2022-11-28T02:15:52.515Z,8.57
2022-11-28T02:18:41.200Z,7.73
2022-11-28T02:21:24.978Z,9.97
2022-11-28T02:24:23.814Z,7.17
2022-11-28T02:27:09.244Z,8.33
2022-11-28T02:30:04.425Z,10.47
2022-11-28T02:32:44.963Z,10.17
2022-11-28T02:35:21.014Z,8.10
2022-11-28T02:38:00.006Z,8.07
2022-11-28T02:40:48.782Z,8.03
2022-11-28T02:43:31.645Z,8.17
2022-11-28T02:46:06.865Z,7.17
2022-11-28T02:48:43.858Z,8.23
2022-11-28T02:51:21.919Z,7.80
2022-11-28T02:53:50.865Z,8.03
2022-11-28T02:56:17.862Z,9.53
2022-11-28T02:58:44.461Z,7.93
2022-11-28T03:01:19.694Z,8.20
2022-11-28T03:04:25.107Z,9.00
2022-11-28T03:07:03.900Z,8.47
2022-11-28T03:09:53.749Z,7.17
2022-11-28T03:12:44.204Z,8.03
2022-11-28T03:15:15.649Z,7.77
2022-11-28T03:17:47.872Z,9.50
2022-11-28T03:20:28.987Z,7.23
2022-11-28T03:23:19.613Z,9.47
2022-11-28T03:25:54.891Z,8.40
2022-11-28T03:28:45.342Z,7.33
2022-11-28T03:31:17.491Z,6.93
2022-11-28T03:33:49.234Z,7.17
2022-11-28T03:36:21.176Z,7.53
2022-11-28T03:38:51.026Z,6.80
2022-11-28T03:41:25.432Z,8.77
2022-11-28T03:43:56.546Z,7.90
2022-11-28T03:46:31.634Z,9.57
2022-11-28T03:48:59.788Z,6.90
2022-11-28T03:51:37.453Z,7.97
2022-11-28T03:54:08.066Z,8.10
2022-11-28T03:56:54.772Z,7.23
2022-11-28T03:59:44.319Z,8.20
2022-11-28T04:02:19.747Z,8.87
2022-11-28T04:04:55.350Z,8.63
2022-11-28T04:07:42.730Z,7.40
2022-11-28T04:10:27.084Z,8.00
2022-11-28T04:13:12.212Z,7.43
2022-11-28T04:15:50.844Z,7.80
2022-11-28T04:18:21.510Z,9.37
2022-11-28T04:20:53.573Z,7.17
2022-11-28T04:23:22.191Z,7.47
2022-11-28T04:26:02.792Z,7.33
2022-11-28T04:28:33.203Z,9.00
2022-11-28T04:31:02.819Z,6.93
2022-11-28T04:33:34.581Z,6.90
2022-11-28T04:36:03.266Z,9.40
2022-11-28T04:38:32.089Z,7.67
2022-11-28T04:41:08.276Z,8.37
2022-11-28T04:43:39.304Z,7.20
2022-11-28T04:46:16.350Z,8.80
2022-11-28T04:48:43.543Z,7.90
2022-11-28T04:51:21.763Z,7.37
2022-11-28T04:54:09.917Z,8.67
2022-11-28T04:56:57.999Z,7.37
2022-11-28T04:59:26.821Z,7.90
2022-11-28T05:01:54.351Z,7.13
2022-11-28T05:04:21.576Z,8.93
2022-11-28T05:06:48.110Z,7.53
2022-11-28T05:09:14.756Z,9.63
2022-11-28T05:11:41.364Z,7.87
2022-11-28T05:14:08.314Z,6.20
2022-11-28T05:16:35.136Z,7.67
2022-11-28T05:19:02.196Z,6.63
2022-11-28T05:21:28.747Z,8.63
2022-11-28T05:23:55.198Z,8.93
2022-11-28T05:26:21.670Z,7.97
2022-11-28T05:28:50.956Z,9.00
2022-11-28T05:31:20.545Z,10.67
2022-11-28T05:33:47.231Z,7.77
2022-11-28T05:36:15.164Z,9.50
2022-11-28T05:38:42.458Z,9.47
2022-11-28T05:41:09.704Z,9.17
2022-11-28T05:43:36.739Z,7.90
2022-11-28T05:46:06.042Z,8.53
2022-11-28T05:48:32.774Z,9.47
2022-11-28T05:50:59.336Z,8.53
2022-11-28T05:53:25.986Z,6.83
2022-11-28T05:55:52.489Z,8.10
2022-11-28T05:58:18.939Z,8.70
2022-11-28T06:00:45.459Z,8.87
2022-11-28T06:03:12.055Z,8.53
2022-11-28T06:05:43.230Z,10.07
2022-11-28T06:08:12.421Z,8.23
2022-11-28T06:10:39.177Z,9.17
2022-11-28T06:13:06.298Z,8.97
2022-11-28T06:15:37.517Z,9.07
2022-11-28T06:18:04.917Z,7.53
2022-11-28T06:20:31.504Z,8.30
2022-11-28T06:22:57.948Z,7.87
2022-11-28T06:25:24.686Z,9.20
2022-11-28T06:27:51.292Z,8.03
2022-11-28T06:30:18.313Z,9.23
2022-11-28T06:32:44.882Z,6.93
2022-11-28T06:35:11.684Z,8.20
2022-11-28T06:37:38.396Z,7.23
2022-11-28T06:40:05.994Z,6.80
2022-11-28T06:42:36.548Z,8.87
2022-11-28T06:45:07.963Z,9.47
2022-11-28T06:47:34.596Z,8.73
2022-11-28T06:50:03.997Z,8.30
2022-11-28T06:52:30.644Z,8.70
2022-11-28T06:54:57.060Z,9.67
2022-11-28T06:57:23.806Z,9.10
2022-11-28T06:59:50.673Z,7.97
2022-11-28T07:02:17.443Z,7.37
2022-11-28T07:04:44.030Z,7.73
2022-11-28T07:07:15.045Z,9.83
2022-11-28T07:09:43.138Z,9.27
2022-11-28T07:12:10.143Z,7.20
2022-11-28T07:14:36.712Z,9.30
2022-11-28T07:17:04.900Z,7.63
2022-11-28T07:19:31.410Z,9.57
2022-11-28T07:21:57.899Z,7.57
2022-11-28T07:24:24.456Z,9.90
2022-11-28T07:26:50.944Z,8.80
2022-11-28T07:29:19.031Z,7.60
2022-11-28T07:31:45.596Z,7.63
2022-11-28T07:34:12.761Z,8.33
2022-11-28T07:36:39.221Z,8.73
2022-11-28T07:39:08.631Z,9.53
2022-11-28T07:41:36.063Z,10.57
2022-11-28T07:44:04.223Z,9.57
2022-11-28T07:46:31.900Z,10.37
2022-11-28T07:48:58.470Z,10.13
2022-11-28T07:51:27.982Z,9.03
2022-11-28T07:53:54.909Z,8.53
2022-11-28T07:56:24.806Z,11.50
2022-11-28T07:58:51.572Z,10.17
2022-11-28T08:01:23.951Z,9.43
2022-11-28T08:03:52.050Z,11.10
2022-11-28T08:06:21.422Z,9.40
2022-11-28T08:08:48.690Z,10.20
2022-11-28T08:11:18.342Z,8.90
2022-11-28T08:13:45.663Z,10.60
2022-11-28T08:16:18.948Z,9.37
2022-11-28T08:18:46.694Z,10.27
2022-11-28T08:21:16.455Z,9.53
2022-11-28T08:23:45.319Z,10.03
2022-11-28T08:26:14.355Z,9.33
2022-11-28T08:28:41.875Z,9.83
2022-11-28T08:31:13.151Z,10.73
2022-11-28T08:33:40.323Z,11.20
2022-11-28T08:36:08.435Z,9.43
2022-11-28T08:38:35.488Z,13.50
2022-11-28T08:41:04.573Z,12.37
2022-11-28T08:43:31.526Z,10.10
2022-11-28T08:45:58.057Z,10.33
2022-11-28T08:48:24.586Z,8.73
2022-11-28T08:50:51.068Z,10.00
2022-11-28T08:53:18.631Z,11.33
2022-11-28T08:55:45.263Z,11.27
2022-11-28T08:58:12.878Z,8.73
2022-11-28T09:00:40.320Z,11.13
2022-11-28T09:03:06.827Z,11.50
2022-11-28T09:05:33.381Z,11.33
2022-11-28T09:07:59.939Z,10.33
2022-11-28T09:10:26.510Z,11.07
2022-11-28T09:12:53.000Z,10.37
2022-11-28T09:15:19.844Z,10.97
2022-11-28T09:17:46.617Z,12.10
2022-11-28T09:20:13.350Z,10.03
2022-11-28T09:22:40.724Z,12.70
2022-11-28T09:25:07.904Z,12.90
2022-11-28T09:27:34.401Z,12.80
2022-11-28T09:30:00.855Z,12.30
2022-11-28T09:32:27.284Z,11.00
2022-11-28T09:34:53.840Z,11.67
2022-11-28T09:37:20.298Z,9.53
2022-11-28T09:40:11.385Z,9.07
2022-11-28T09:42:43.682Z,11.63
2022-11-28T09:45:19.407Z,11.53
2022-11-28T09:47:50.364Z,10.00
2022-11-28T09:50:24.563Z,10.00
2022-11-28T09:53:01.760Z,11.27
2022-11-28T09:55:49.846Z,10.20
2022-11-28T09:58:26.738Z,11.47
2022-11-28T10:00:55.930Z,10.93
2022-11-28T10:03:37.671Z,10.90
2022-11-28T10:06:31.126Z,12.97
2022-11-28T10:09:19.554Z,12.57
2022-11-28T10:12:00.928Z,13.33
2022-11-28T10:15:06.075Z,12.83
2022-11-28T10:18:00.783Z,10.50
2022-11-28T10:20:31.267Z,11.03
2022-11-28T10:23:04.821Z,10.93
2022-11-28T10:25:42.668Z,12.30
2022-11-28T10:28:16.655Z,15.10
2022-11-28T10:30:48.852Z,10.97
2022-11-28T10:33:26.797Z,10.90
2022-11-28T10:35:59.580Z,11.47
2022-11-28T10:38:27.952Z,11.87
2022-11-28T10:41:17.120Z,11.17
2022-11-28T10:43:59.500Z,12.33
2022-11-28T10:46:44.596Z,10.23
2022-11-28T10:49:20.292Z,10.83
2022-11-28T10:51:58.525Z,10.40
2022-11-28T10:54:46.558Z,11.73
2022-11-28T10:57:24.002Z,10.80
2022-11-28T11:00:03.557Z,10.50
2022-11-28T11:02:48.561Z,12.03
2022-11-28T11:05:21.751Z,19.37
2022-11-28T11:07:51.978Z,12.47
2022-11-28T11:10:36.826Z,12.00
2022-11-28T11:13:26.353Z,14.57
2022-11-28T11:16:06.320Z,11.30
2022-11-28T11:18:51.005Z,13.57
2022-11-28T11:21:22.771Z,10.73
2022-11-28T11:24:01.099Z,10.90
2022-11-28T11:26:33.915Z,13.63
2022-11-28T11:29:02.375Z,11.00
2022-11-28T11:31:43.091Z,11.70
2022-11-28T11:34:18.565Z,11.83
2022-11-28T11:36:45.915Z,12.40
2022-11-28T11:39:15.050Z,11.33
2022-11-28T11:41:44.447Z,12.37
2022-11-28T11:44:13.644Z,12.60
2022-11-28T11:47:05.732Z,13.57
2022-11-28T11:49:38.173Z,11.73
2022-11-28T11:52:15.131Z,10.90
2022-11-28T11:54:47.322Z,12.83
2022-11-28T11:57:32.601Z,11.87
2022-11-28T12:00:18.326Z,13.13
2022-11-28T12:02:55.508Z,11.57
2022-11-28T12:05:46.423Z,13.23
2022-11-28T12:08:34.808Z,12.63
2022-11-28T12:11:26.039Z,12.93
2022-11-28T12:13:52.906Z,12.10
2022-11-28T12:16:51.864Z,11.00
2022-11-28T12:19:46.047Z,12.37
2022-11-28T12:22:30.644Z,13.70
2022-11-28T12:25:26.276Z,11.63
2022-11-28T12:28:17.835Z,11.50
2022-11-28T12:31:21.807Z,14.33
2022-11-28T12:34:13.444Z,14.83
2022-11-28T12:37:05.111Z,11.67
2022-11-28T12:39:39.679Z,11.80
2022-11-28T12:42:29.230Z,12.10
2022-11-28T12:45:19.757Z,11.17
2022-11-28T12:47:56.386Z,12.27
2022-11-28T12:50:42.494Z,14.07
2022-11-28T12:53:47.663Z,12.20
2022-11-28T12:56:42.227Z,13.30
2022-11-28T12:59:31.448Z,13.17
2022-11-28T13:02:18.878Z,13.10
2022-11-28T13:05:19.685Z,11.90
2022-11-28T13:07:48.936Z,13.57
2022-11-28T13:11:03.347Z,13.77
2022-11-28T13:13:39.723Z,12.47
2022-11-28T13:16:34.997Z,12.00
2022-11-28T13:19:08.914Z,12.40
2022-11-28T13:21:43.836Z,14.17
2022-11-28T13:24:23.312Z,12.37
2022-11-28T13:27:17.191Z,11.07
2022-11-28T13:29:47.143Z,11.70
2022-11-28T13:32:28.512Z,13.43
2022-11-28T13:34:56.063Z,13.93
2022-11-28T13:40:38.132Z,17.47
2022-11-28T13:43:23.205Z,15.03
2022-11-28T13:45:52.535Z,13.20
2022-11-28T13:49:06.150Z,12.07
2022-11-28T13:51:32.054Z,13.00
2022-11-28T13:54:17.178Z,14.27
2022-11-28T13:56:46.223Z,12.10
2022-11-28T13:59:22.877Z,13.80
2022-11-28T14:02:32.929Z,14.80
2022-11-28T14:05:00.091Z,13.57
2022-11-28T14:07:33.394Z,12.93
2022-11-28T14:10:27.320Z,12.97
2022-11-28T14:13:23.032Z,16.37
2022-11-28T14:16:04.784Z,12.57
2022-11-28T14:18:57.751Z,13.93
2022-11-28T14:21:30.548Z,15.03
2022-11-28T14:24:29.665Z,16.20
2022-11-28T14:27:01.031Z,15.60
2022-11-28T14:29:39.281Z,14.00
2022-11-28T14:32:28.942Z,11.40
2022-11-28T14:34:54.170Z,12.87
2022-11-28T14:37:21.255Z,14.37
2022-11-28T14:39:50.336Z,11.77
2022-11-28T14:42:43.825Z,14.27
2022-11-28T14:45:32.978Z,13.93
2022-11-28T14:48:18.596Z,15.60
2022-11-28T14:50:49.427Z,11.93
2022-11-28T14:53:42.364Z,13.23
2022-11-28T14:56:15.349Z,12.53
2022-11-28T14:58:50.084Z,13.90
2022-11-28T15:01:43.035Z,13.87
2022-11-28T15:04:33.918Z,13.17
2022-11-28T15:07:03.990Z,12.27
2022-11-28T15:09:38.219Z,12.97
2022-11-28T15:12:33.490Z,13.37
2022-11-28T15:15:00.296Z,13.37
2022-11-28T15:17:33.237Z,11.80
2022-11-28T15:20:27.805Z,12.70
2022-11-28T15:22:55.123Z,15.67
2022-11-28T15:25:26.263Z,14.47
2022-11-28T15:27:55.315Z,14.47
2022-11-28T15:30:28.924Z,14.17
2022-11-28T15:33:02.645Z,14.37
2022-11-28T15:35:29.227Z,15.77
2022-11-28T15:37:58.411Z,17.57
2022-11-28T15:40:31.180Z,15.37
2022-11-28T15:43:00.133Z,15.50
2022-11-28T15:45:33.016Z,14.13
2022-11-28T15:48:00.416Z,14.17
2022-11-28T15:50:30.122Z,13.67
2022-11-28T15:53:18.841Z,15.83
2022-11-28T15:55:46.096Z,16.80
2022-11-28T15:58:31.658Z,14.63
2022-11-28T16:01:05.433Z,14.07
2022-11-28T16:03:46.177Z,15.83
2022-11-28T16:06:12.825Z,14.17
2022-11-28T16:08:48.147Z,14.40
2022-11-28T16:11:19.709Z,13.93
2022-11-28T16:13:47.200Z,15.57
2022-11-28T16:16:23.918Z,14.83
2022-11-28T16:19:02.700Z,15.67
2022-11-28T16:21:36.072Z,15.00
2022-11-28T16:24:04.900Z,13.63
2022-11-28T16:26:36.780Z,14.33
2022-11-28T16:29:05.946Z,15.90
2022-11-28T16:31:33.780Z,15.23
2022-11-28T16:34:03.298Z,15.20
2022-11-28T16:36:30.955Z,14.30
2022-11-28T16:39:24.096Z,15.30
2022-11-28T16:41:54.615Z,17.30
2022-11-28T16:44:24.921Z,14.43
2022-11-28T16:46:57.308Z,12.80
2022-11-28T16:49:37.517Z,15.20
2022-11-28T16:52:22.035Z,15.80
2022-11-28T16:54:49.921Z,15.30
2022-11-28T16:57:16.902Z,19.43
2022-11-28T16:59:44.587Z,15.30
2022-11-28T17:02:18.953Z,18.23
2022-11-28T17:04:47.983Z,16.97
2022-11-28T17:07:17.177Z,17.97
2022-11-28T17:09:46.727Z,20.90
2022-11-28T17:12:27.339Z,17.80
2022-11-28T17:14:54.889Z,15.43
2022-11-28T17:17:26.143Z,19.60
2022-11-28T17:19:52.794Z,18.43
2022-11-28T17:22:22.956Z,15.00
2022-11-28T17:24:50.080Z,18.60
2022-11-28T17:27:16.837Z,15.57
2022-11-28T17:29:44.275Z,16.83
2022-11-28T17:32:13.368Z,15.83
2022-11-28T17:34:42.047Z,15.83
2022-11-28T17:37:09.372Z,16.40
2022-11-28T17:39:35.875Z,17.60
2022-11-28T17:42:02.654Z,16.57
2022-11-28T17:44:31.888Z,18.00
2022-11-28T17:47:01.014Z,15.90
2022-11-28T17:49:28.897Z,21.80
2022-11-28T17:51:56.694Z,14.83
2022-11-28T17:54:25.955Z,16.53
2022-11-28T17:56:53.342Z,16.43
2022-11-28T17:59:22.585Z,18.40
2022-11-28T18:01:49.689Z,18.60
2022-11-28T18:04:22.796Z,15.43
2022-11-28T18:06:49.762Z,17.07
2022-11-28T18:09:16.282Z,19.37
2022-11-28T18:11:43.465Z,17.10
2022-11-28T18:14:10.477Z,18.23
2022-11-28T18:16:39.556Z,18.37
2022-11-28T18:19:06.907Z,18.07
2022-11-28T18:21:33.825Z,23.10
2022-11-28T18:24:00.707Z,19.60
2022-11-28T18:26:27.772Z,20.47
2022-11-28T18:28:54.610Z,19.27
2022-11-28T18:31:25.221Z,18.03
2022-11-28T18:33:56.174Z,16.80
2022-11-28T18:36:27.583Z,18.37
2022-11-28T18:39:02.373Z,18.23
2022-11-28T18:41:30.188Z,16.73
2022-11-28T18:44:04.623Z,16.30
2022-11-28T18:46:33.236Z,14.47
2022-11-28T18:49:00.952Z,17.97
2022-11-28T18:51:34.901Z,16.57
2022-11-28T18:54:05.545Z,16.00
2022-11-28T18:56:33.939Z,15.20
2022-11-28T18:59:00.583Z,17.20
2022-11-28T19:01:30.896Z,14.93
2022-11-28T19:03:59.074Z,16.93
2022-11-28T19:06:26.465Z,18.67
2022-11-28T19:08:54.992Z,16.70
2022-11-28T19:11:23.082Z,18.57
2022-11-28T19:13:51.613Z,18.23
2022-11-28T19:16:20.727Z,18.73
2022-11-28T19:18:48.048Z,17.30
2022-11-28T19:21:18.732Z,18.70
2022-11-28T19:23:47.124Z,19.33
2022-11-28T19:26:15.873Z,18.37
2022-11-28T19:28:43.189Z,16.20
2022-11-28T19:31:15.701Z,17.87
2022-11-28T19:33:44.068Z,18.33
2022-11-28T19:36:12.777Z,19.60
2022-11-28T19:38:40.306Z,19.50
2022-11-28T19:41:11.794Z,19.77
2022-11-28T19:43:38.966Z,19.53
2022-11-28T19:46:06.911Z,20.70
2022-11-28T19:48:35.458Z,20.53
2022-11-28T19:51:04.069Z,24.30
2022-11-28T19:53:32.231Z,23.73
2022-11-28T19:56:13.531Z,22.27
2022-11-28T19:58:41.027Z,20.40
2022-11-28T20:01:15.716Z,21.23
2022-11-28T20:03:43.231Z,20.03
2022-11-28T20:06:16.733Z,20.67
2022-11-28T20:08:43.822Z,20.47
2022-11-28T20:11:34.234Z,20.23
2022-11-28T20:14:11.206Z,18.40
2022-11-28T20:16:39.483Z,18.80
2022-11-28T20:19:07.211Z,20.17
2022-11-28T20:21:34.591Z,19.33
2022-11-28T20:24:05.000Z,19.03
2022-11-28T20:26:36.879Z,18.23
2022-11-28T20:29:03.874Z,19.43
2022-11-28T20:31:33.901Z,15.50
2022-11-28T20:34:02.014Z,18.03
2022-11-28T20:36:31.057Z,18.77
2022-11-28T20:38:58.660Z,17.40
2022-11-28T20:41:27.081Z,16.67
2022-11-28T20:43:53.804Z,20.30
2022-11-28T20:46:27.282Z,18.10
2022-11-28T20:48:57.282Z,20.63
2022-11-28T20:51:25.488Z,20.43
2022-11-28T20:53:53.173Z,21.03
2022-11-28T20:56:25.507Z,19.53
2022-11-28T20:58:52.752Z,23.63
2022-11-28T21:01:24.477Z,21.30
2022-11-28T21:03:51.799Z,20.13
2022-11-28T21:06:19.131Z,21.30
2022-11-28T21:08:46.062Z,20.80
2022-11-28T21:11:30.921Z,21.10
2022-11-28T21:14:02.207Z,22.37
2022-11-28T21:16:31.326Z,25.23
2022-11-28T21:19:07.335Z,23.53
2022-11-28T21:21:34.788Z,20.97
2022-11-28T21:24:04.365Z,21.47
2022-11-28T21:26:33.064Z,20.40
2022-11-28T21:29:07.332Z,21.10
2022-11-28T21:31:36.665Z,23.20
2022-11-28T21:34:03.514Z,20.67
2022-11-28T21:36:31.774Z,23.63
2022-11-28T21:39:00.757Z,23.67
2022-11-28T21:41:31.356Z,21.30
2022-11-28T21:43:59.496Z,22.60
2022-11-28T21:46:26.865Z,21.50
2022-11-28T21:48:53.678Z,23.50
2022-11-28T21:51:24.889Z,21.63
2022-11-28T21:53:52.117Z,20.50
2022-11-28T21:56:19.804Z,20.80
2022-11-28T21:58:46.262Z,22.13
2022-11-28T22:01:14.276Z,22.40
2022-11-28T22:03:43.633Z,21.77
2022-11-28T22:06:16.911Z,23.03
2022-11-28T22:08:44.189Z,21.93
2022-11-28T22:11:13.285Z,21.33
2022-11-28T22:13:45.861Z,24.60
2022-11-28T22:16:18.790Z,22.90
2022-11-28T22:18:46.704Z,23.57
2022-11-28T22:21:50.016Z,24.50
2022-11-28T22:24:02.951Z,20.60
2022-11-28T22:26:29.486Z,24.77
2022-11-28T22:28:58.884Z,23.27
2022-11-28T22:31:25.831Z,22.30
2022-11-28T22:33:52.815Z,21.97
2022-11-28T22:36:21.019Z,24.07
2022-11-28T22:38:49.054Z,23.73
2022-11-28T22:41:24.804Z,23.17
2022-11-28T22:43:56.873Z,25.30
2022-11-28T22:46:23.785Z,24.73
2022-11-28T22:48:51.703Z,21.70
2022-11-28T22:51:21.855Z,21.90
2022-11-28T22:53:53.296Z,22.27
2022-11-28T22:56:19.911Z,21.97
2022-11-28T22:58:46.729Z,22.57
2022-11-28T23:01:18.835Z,24.57
2022-11-28T23:03:46.472Z,23.87
2022-11-28T23:06:19.198Z,25.90
2022-11-28T23:08:46.741Z,24.27
2022-11-28T23:11:16.329Z,23.00
2022-11-28T23:13:44.305Z,21.77
2022-11-28T23:16:19.119Z,24.43
2022-11-28T23:18:48.195Z,21.40
2022-11-28T23:21:15.844Z,22.37
2022-11-28T23:23:44.031Z,23.97
2022-11-28T23:26:16.587Z,21.43
2022-11-28T23:28:43.902Z,22.87
2022-11-28T23:31:14.918Z,21.27
2022-11-28T23:33:41.986Z,22.50
2022-11-28T23:36:15.872Z,23.30
2022-11-28T23:38:43.648Z,22.80
2022-11-28T23:41:11.154Z,23.03
2022-11-28T23:43:37.736Z,23.27
2022-11-28T23:46:05.179Z,21.80
2022-11-28T23:48:32.123Z,23.37
2022-11-28T23:50:59.188Z,25.13
2022-11-28T23:53:26.015Z,24.13
2022-11-28T23:55:52.470Z,23.97
2022-11-28T23:58:19.143Z,23.10
